Portada
METAR-TAF:

METAR-TAF

Aeroports :

Brookhaven Airport

Shirley, Nova York, Estats Units d'Amèrica

latitud: 40-49-18N, longitud: 072-52-08W, altitud: 25 m

Observació

L'informe es va fer fa 43 minuts, a les 09:56 UTC
Vent 7 kt del Sud/Sud-Est
Temperatura 21°C
Humitat 88%
Pressió 1011 hPa
Visibilitat: 16.1 km
Cel cobert a una alçada de 600 ft
pluja

METAR: KHWV 250956Z AUTO 16007KT 10SM -RA OVC006 21/19 A2986 RMK AO2 RAB46 SLP110 P0000 T02110194

Hora: 06:39 (10:39 UTC)


TAF: manca

Observacions i pronòstics meteorològics de més de 4000 aeroports (METAR i TAF).

Les estacions disponibles són els punts grocs i vermells al mapa.

Posi el ratolí al punt desitjat per veure el nom de l'estació.

Feu clic per veure les observacions i els pronòstics meteorològics.

Per canviar el mapa: feu clic els botons verds amb una creu de color negre per apropar; al botó verd amb un guió per allunyar la imatge; o en les fletxes verdes per a mapes adjacents.


METAR-TAF: